createdAt,value
2022-10-26T00:01:12.782Z,11.17
2022-10-26T00:03:40.511Z,11.17
2022-10-26T00:06:12.764Z,11.20
2022-10-26T00:08:39.495Z,11.22
2022-10-26T00:11:06.873Z,11.26
2022-10-26T00:13:33.902Z,11.27
2022-10-26T00:18:26.686Z,11.32
2022-10-26T00:20:53.083Z,11.33
2022-10-26T00:23:19.502Z,11.34
2022-10-26T00:25:54.449Z,11.37
2022-10-26T00:28:20.875Z,11.39
2022-10-26T00:30:47.333Z,11.41
2022-10-26T00:33:13.922Z,11.43
2022-10-26T00:35:46.100Z,11.44
2022-10-26T00:38:12.947Z,11.45
2022-10-26T00:40:39.398Z,11.45
2022-10-26T00:43:14.527Z,11.47
2022-10-26T00:45:40.914Z,11.48
2022-10-26T00:48:14.432Z,11.48
2022-10-26T00:50:45.100Z,11.48
2022-10-26T00:53:12.882Z,11.50
2022-10-26T00:55:45.009Z,11.49
2022-10-26T00:58:12.045Z,11.49
2022-10-26T01:00:40.692Z,11.50
2022-10-26T01:03:09.040Z,11.49
2022-10-26T01:05:38.572Z,11.50
2022-10-26T01:08:05.875Z,11.49
2022-10-26T01:10:32.753Z,11.52
2022-10-26T01:12:59.751Z,11.54
2022-10-26T01:15:54.616Z,11.56
2022-10-26T01:18:23.945Z,11.57
2022-10-26T01:21:15.358Z,11.58
2022-10-26T01:23:54.043Z,11.61
2022-10-26T01:26:32.931Z,11.63
2022-10-26T01:29:21.046Z,11.65
2022-10-26T01:31:58.229Z,11.65
2022-10-26T01:34:34.682Z,11.67
2022-10-26T01:37:10.731Z,11.70
2022-10-26T01:39:49.908Z,11.72
2022-10-26T01:42:18.991Z,11.73
2022-10-26T01:44:49.434Z,11.73
2022-10-26T01:47:18.376Z,11.76
2022-10-26T01:49:50.322Z,11.75
2022-10-26T01:52:18.401Z,11.76
2022-10-26T01:54:44.827Z,11.77
2022-10-26T01:57:14.685Z,11.79
2022-10-26T02:00:11.925Z,11.83
2022-10-26T02:02:47.080Z,11.83
2022-10-26T02:05:36.445Z,11.84
2022-10-26T02:08:41.988Z,11.87
2022-10-26T02:11:08.366Z,11.89
2022-10-26T02:13:56.761Z,11.92
2022-10-26T02:16:37.482Z,11.98
2022-10-26T02:19:27.136Z,12.04
2022-10-26T02:22:07.218Z,12.07
2022-10-26T02:24:36.401Z,12.08
2022-10-26T02:27:06.492Z,12.08
2022-10-26T02:29:34.766Z,12.07
2022-10-26T02:32:03.424Z,12.09
2022-10-26T02:34:30.955Z,12.07
2022-10-26T02:37:00.832Z,12.08
2022-10-26T02:39:32.587Z,12.09
2022-10-26T02:42:03.079Z,12.10
2022-10-26T02:44:33.730Z,12.11
2022-10-26T02:47:00.977Z,12.15
2022-10-26T02:49:27.820Z,12.19
2022-10-26T02:52:11.278Z,12.23
2022-10-26T02:54:37.684Z,12.24
2022-10-26T02:57:04.032Z,12.25
2022-10-26T02:59:34.268Z,12.22
2022-10-26T03:02:01.684Z,12.25
2022-10-26T03:04:30.307Z,12.27
2022-10-26T03:06:56.749Z,12.29
2022-10-26T03:09:25.456Z,12.31
2022-10-26T03:11:52.537Z,12.32
2022-10-26T03:14:19.075Z,12.36
2022-10-26T03:16:45.603Z,12.37
2022-10-26T03:19:12.094Z,12.38
2022-10-26T03:21:38.475Z,12.41
2022-10-26T03:24:05.157Z,12.44
2022-10-26T03:26:31.576Z,12.54
2022-10-26T03:28:57.947Z,12.53
2022-10-26T03:31:24.336Z,12.55
2022-10-26T03:33:50.793Z,12.60
2022-10-26T03:36:17.462Z,12.61
2022-10-26T03:38:43.894Z,12.58
2022-10-26T03:41:10.305Z,12.61
2022-10-26T03:43:36.698Z,12.60
2022-10-26T03:46:03.153Z,12.62
2022-10-26T03:48:29.591Z,12.63
2022-10-26T03:50:59.529Z,12.64
2022-10-26T03:53:26.902Z,12.64
2022-10-26T03:55:53.347Z,12.65
2022-10-26T03:58:20.322Z,12.65
2022-10-26T04:00:47.645Z,12.67
2022-10-26T04:03:14.127Z,12.70
2022-10-26T04:05:41.624Z,12.73
2022-10-26T04:08:08.801Z,12.75
2022-10-26T04:10:35.404Z,12.79
2022-10-26T04:13:01.871Z,12.78
2022-10-26T04:15:29.373Z,12.80
2022-10-26T04:17:57.424Z,12.86
2022-10-26T04:20:24.720Z,12.87
2022-10-26T04:23:06.215Z,12.92
2022-10-26T04:25:33.850Z,12.90
2022-10-26T04:28:01.959Z,12.88
2022-10-26T04:30:28.507Z,12.82
2022-10-26T04:32:54.926Z,12.86
2022-10-26T04:35:21.355Z,12.87
2022-10-26T04:37:47.814Z,12.85
2022-10-26T04:40:14.434Z,12.80
2022-10-26T04:42:45.635Z,12.82
2022-10-26T04:45:13.724Z,12.83
2022-10-26T04:47:41.345Z,12.77
2022-10-26T04:50:09.252Z,12.82
2022-10-26T04:52:36.212Z,12.83
2022-10-26T04:55:05.986Z,12.84
2022-10-26T04:57:34.131Z,12.80
2022-10-26T05:00:01.997Z,12.84
2022-10-26T05:02:29.545Z,12.86
2022-10-26T05:04:56.216Z,12.91
2022-10-26T05:07:22.715Z,12.94
2022-10-26T05:09:49.167Z,12.94
2022-10-26T05:12:15.648Z,12.94
2022-10-26T05:14:42.034Z,12.97
2022-10-26T05:17:08.587Z,12.96
2022-10-26T05:19:35.027Z,12.94
2022-10-26T05:22:01.404Z,12.94
2022-10-26T05:24:27.821Z,12.98
2022-10-26T05:26:54.293Z,12.94
2022-10-26T05:29:20.703Z,12.93
2022-10-26T05:31:47.148Z,12.85
2022-10-26T05:34:13.631Z,12.81
2022-10-26T05:36:40.170Z,12.79
2022-10-26T05:39:06.733Z,12.81
2022-10-26T05:41:33.141Z,12.80
2022-10-26T05:43:59.874Z,12.79
2022-10-26T05:46:26.248Z,12.82
2022-10-26T05:48:52.737Z,12.80
2022-10-26T05:51:19.135Z,12.78
2022-10-26T05:53:45.545Z,12.78
2022-10-26T05:56:31.872Z,12.74
2022-10-26T05:58:58.507Z,12.71
2022-10-26T06:01:32.305Z,12.67
2022-10-26T06:04:20.655Z,12.63
2022-10-26T06:06:53.249Z,12.61
2022-10-26T06:09:20.050Z,12.60
2022-10-26T06:11:46.817Z,12.58
2022-10-26T06:14:13.705Z,12.56
2022-10-26T06:16:48.092Z,12.53
2022-10-26T06:19:26.188Z,12.54
2022-10-26T06:22:13.776Z,12.54
2022-10-26T06:24:58.058Z,12.55
2022-10-26T06:28:01.544Z,12.58
2022-10-26T06:30:28.160Z,12.59
2022-10-26T06:33:05.781Z,12.59
2022-10-26T06:35:40.704Z,12.61
2022-10-26T06:38:34.910Z,12.61
2022-10-26T06:41:01.902Z,12.63
2022-10-26T06:43:32.076Z,12.68
2022-10-26T06:46:37.776Z,12.73
2022-10-26T06:49:18.444Z,12.72
2022-10-26T06:51:56.884Z,12.76
2022-10-26T06:54:45.723Z,12.83
2022-10-26T06:57:15.195Z,12.82
2022-10-26T06:59:44.742Z,12.86
2022-10-26T07:02:14.857Z,12.88
2022-10-26T07:04:42.725Z,12.92
2022-10-26T07:07:12.006Z,12.91
2022-10-26T07:09:38.445Z,12.88
2022-10-26T07:12:05.219Z,12.88
2022-10-26T07:14:31.761Z,12.95
2022-10-26T07:16:58.261Z,13.03
2022-10-26T07:19:24.676Z,13.06
2022-10-26T07:21:51.062Z,13.18
2022-10-26T07:24:17.519Z,13.24
2022-10-26T07:26:43.883Z,13.28
2022-10-26T07:29:10.300Z,13.38
2022-10-26T07:31:36.719Z,13.43
2022-10-26T07:34:03.326Z,13.48
2022-10-26T07:36:29.771Z,13.52
2022-10-26T07:38:56.220Z,13.51
2022-10-26T07:41:22.696Z,13.59
2022-10-26T07:43:50.724Z,13.62
2022-10-26T07:46:17.983Z,13.54
2022-10-26T07:51:15.889Z,13.55
2022-10-26T07:53:42.445Z,13.65
2022-10-26T07:56:10.136Z,13.70
2022-10-26T07:58:36.657Z,13.71
2022-10-26T08:01:08.667Z,13.70
2022-10-26T08:03:35.215Z,13.69
2022-10-26T08:06:02.863Z,13.80
2022-10-26T08:08:29.502Z,13.83
2022-10-26T08:10:55.932Z,13.90
2022-10-26T08:13:22.365Z,14.01
2022-10-26T08:15:48.995Z,13.95
2022-10-26T08:18:15.749Z,14.07
2022-10-26T08:20:42.283Z,14.13
2022-10-26T08:23:08.719Z,14.24
2022-10-26T08:25:35.125Z,14.23
2022-10-26T08:28:05.169Z,14.23
2022-10-26T08:30:32.547Z,14.25
2022-10-26T08:33:03.982Z,14.23
2022-10-26T08:35:31.257Z,14.23
2022-10-26T08:37:57.821Z,14.30
2022-10-26T08:40:27.406Z,14.31
2022-10-26T08:43:00.561Z,14.33
2022-10-26T08:45:40.249Z,14.36
2022-10-26T08:48:19.989Z,14.26
2022-10-26T08:50:54.415Z,14.20
2022-10-26T08:53:56.069Z,14.21
2022-10-26T08:56:28.240Z,14.24
2022-10-26T08:59:00.078Z,14.26
2022-10-26T09:01:26.704Z,14.26
2022-10-26T09:03:53.267Z,14.18
2022-10-26T09:06:26.610Z,14.17
2022-10-26T09:09:13.819Z,14.29
2022-10-26T09:12:04.469Z,14.41
2022-10-26T09:14:53.375Z,14.44
2022-10-26T09:17:28.865Z,14.53
2022-10-26T09:20:02.621Z,14.50
2022-10-26T09:22:56.612Z,14.53
2022-10-26T09:25:27.370Z,14.57
2022-10-26T09:28:02.081Z,14.67
2022-10-26T09:30:30.398Z,14.70
2022-10-26T09:33:05.196Z,14.83
2022-10-26T09:35:46.245Z,14.90
2022-10-26T09:38:28.532Z,15.01
2022-10-26T09:40:57.274Z,15.03
2022-10-26T09:43:33.170Z,15.01
2022-10-26T09:45:59.571Z,14.99
2022-10-26T09:49:06.909Z,14.97
2022-10-26T09:51:36.584Z,14.98
2022-10-26T09:54:13.421Z,14.98
2022-10-26T09:56:41.560Z,14.91
2022-10-26T09:59:11.103Z,14.94
2022-10-26T10:01:40.222Z,14.94
2022-10-26T10:04:16.773Z,15.04
2022-10-26T10:06:45.177Z,14.99
2022-10-26T10:09:28.261Z,15.15
2022-10-26T10:12:01.158Z,14.97
2022-10-26T10:14:31.804Z,15.05
2022-10-26T10:17:04.261Z,15.06
2022-10-26T10:19:35.920Z,15.00
2022-10-26T10:22:14.539Z,14.95
2022-10-26T10:24:43.493Z,15.14
2022-10-26T10:27:13.234Z,15.22
2022-10-26T10:29:49.738Z,15.21
2022-10-26T10:32:27.910Z,15.25
2022-10-26T10:34:58.914Z,15.35
2022-10-26T10:37:46.916Z,15.33
2022-10-26T10:40:23.082Z,15.30
2022-10-26T10:42:51.595Z,15.43
2022-10-26T10:45:24.962Z,15.38
2022-10-26T10:48:13.014Z,15.47
2022-10-26T10:50:50.483Z,15.54
2022-10-26T10:53:23.574Z,15.67
2022-10-26T10:56:04.449Z,15.62
2022-10-26T10:58:57.207Z,15.70
2022-10-26T11:01:30.805Z,15.85
2022-10-26T11:04:35.845Z,15.81
2022-10-26T11:07:04.817Z,15.81
2022-10-26T11:09:36.449Z,15.73
2022-10-26T11:12:12.407Z,15.85
2022-10-26T11:14:49.537Z,16.07
2022-10-26T11:17:26.194Z,16.02
2022-10-26T11:20:00.506Z,16.20
2022-10-26T11:22:33.058Z,16.16
2022-10-26T11:25:18.416Z,16.11
2022-10-26T11:28:11.280Z,16.13
2022-10-26T11:30:46.221Z,16.18
2022-10-26T11:33:19.470Z,16.19
2022-10-26T11:36:03.172Z,16.30
2022-10-26T11:38:46.225Z,16.66
2022-10-26T11:41:32.471Z,16.63
2022-10-26T11:44:04.934Z,16.53
2022-10-26T11:47:02.447Z,16.64
2022-10-26T11:49:46.270Z,16.95
2022-10-26T11:52:25.230Z,17.22
2022-10-26T11:54:58.435Z,17.47
2022-10-26T11:57:28.042Z,17.53
2022-10-26T11:59:59.798Z,17.74
2022-10-26T12:02:26.528Z,17.67
2022-10-26T12:05:05.972Z,17.72
2022-10-26T12:07:36.176Z,17.84
2022-10-26T12:10:06.326Z,17.81
2022-10-26T12:12:40.338Z,17.66
2022-10-26T12:15:40.028Z,17.84
2022-10-26T12:18:50.199Z,17.73
2022-10-26T12:21:18.408Z,17.91
2022-10-26T12:23:58.700Z,18.01
2022-10-26T12:26:28.045Z,17.98
2022-10-26T12:29:03.476Z,18.15
2022-10-26T12:31:33.382Z,18.11
2022-10-26T12:34:00.287Z,18.25
2022-10-26T12:36:54.773Z,18.04
2022-10-26T12:39:34.894Z,18.22
2022-10-26T12:42:04.363Z,18.37
2022-10-26T12:44:59.824Z,18.24
2022-10-26T12:47:29.736Z,18.24
2022-10-26T12:50:02.254Z,18.18
2022-10-26T12:52:32.576Z,18.38
2022-10-26T12:55:30.088Z,18.37
2022-10-26T12:58:11.670Z,18.48
2022-10-26T13:00:45.981Z,18.66
2022-10-26T13:03:33.706Z,18.77
2022-10-26T13:06:33.096Z,18.86
2022-10-26T13:09:00.272Z,19.04
2022-10-26T13:11:32.065Z,19.15
2022-10-26T13:14:02.721Z,19.17
2022-10-26T13:16:30.175Z,19.11
2022-10-26T13:18:57.945Z,19.04
2022-10-26T13:21:25.974Z,18.81
2022-10-26T13:23:56.808Z,18.67
2022-10-26T13:26:25.761Z,18.56
2022-10-26T13:28:59.241Z,18.44
2022-10-26T13:31:28.634Z,18.33
2022-10-26T13:34:05.897Z,18.44
2022-10-26T13:36:36.681Z,18.36
2022-10-26T13:39:11.035Z,18.46
2022-10-26T13:41:40.931Z,18.25
2022-10-26T13:44:16.618Z,18.27
2022-10-26T13:46:44.516Z,18.43
2022-10-26T13:49:23.761Z,18.39
2022-10-26T13:51:52.488Z,18.39
2022-10-26T13:54:28.447Z,18.58
2022-10-26T13:57:13.079Z,18.64
2022-10-26T13:59:43.740Z,18.52
2022-10-26T14:02:22.137Z,18.30
2022-10-26T14:04:53.755Z,18.42
2022-10-26T14:07:24.204Z,18.41
2022-10-26T14:09:55.942Z,18.36
2022-10-26T14:12:24.388Z,18.23
2022-10-26T14:14:52.485Z,18.33
2022-10-26T14:17:22.099Z,18.24
2022-10-26T14:19:50.008Z,18.31
2022-10-26T14:22:24.841Z,18.47
2022-10-26T14:24:59.365Z,18.23
2022-10-26T14:27:31.005Z,17.99
2022-10-26T14:30:21.094Z,17.95
2022-10-26T14:32:44.147Z,17.89
2022-10-26T14:35:14.526Z,17.77
2022-10-26T14:38:21.930Z,17.64
2022-10-26T14:40:49.415Z,17.61
2022-10-26T14:43:23.321Z,17.46
2022-10-26T14:45:51.876Z,17.70
2022-10-26T14:48:27.604Z,17.68
2022-10-26T14:51:04.078Z,17.60
2022-10-26T14:53:35.657Z,17.50
2022-10-26T14:56:04.880Z,17.41
2022-10-26T14:58:32.981Z,17.24
2022-10-26T15:01:21.319Z,17.11
2022-10-26T15:03:52.440Z,17.02
2022-10-26T15:06:43.101Z,16.93
2022-10-26T15:09:30.588Z,16.90
2022-10-26T15:11:57.153Z,16.81
2022-10-26T15:14:23.622Z,16.74
2022-10-26T15:16:54.592Z,16.64
2022-10-26T15:19:23.889Z,16.58
2022-10-26T15:21:52.267Z,16.52
2022-10-26T15:24:34.601Z,16.54
2022-10-26T15:27:12.884Z,16.50
2022-10-26T15:29:45.002Z,16.51
2022-10-26T15:32:25.345Z,16.47
2022-10-26T15:35:15.337Z,16.43
2022-10-26T15:37:42.196Z,16.37
2022-10-26T15:40:08.980Z,16.32
2022-10-26T15:42:38.148Z,16.28
2022-10-26T15:45:22.424Z,16.23
2022-10-26T15:47:52.033Z,16.18
2022-10-26T15:50:21.855Z,16.13
2022-10-26T15:52:49.505Z,16.09
2022-10-26T15:55:17.511Z,16.04
2022-10-26T15:57:44.282Z,16.01
2022-10-26T16:00:16.087Z,15.98
2022-10-26T16:02:45.107Z,15.91
2022-10-26T16:05:13.461Z,15.87
2022-10-26T16:07:43.124Z,15.82
2022-10-26T16:10:23.100Z,15.79
2022-10-26T16:12:50.326Z,15.74
2022-10-26T16:15:19.801Z,15.75
2022-10-26T16:17:46.567Z,15.72
2022-10-26T16:20:18.718Z,15.69
2022-10-26T16:22:48.402Z,15.68
2022-10-26T16:25:21.915Z,15.63
2022-10-26T16:27:49.560Z,15.57
2022-10-26T16:30:16.880Z,15.52
2022-10-26T16:32:43.664Z,15.49
2022-10-26T16:35:11.433Z,15.45
2022-10-26T16:37:37.893Z,15.43
2022-10-26T16:40:05.615Z,15.36
2022-10-26T16:42:32.289Z,15.37
2022-10-26T16:45:02.616Z,15.33
2022-10-26T16:47:32.133Z,15.30
2022-10-26T16:49:58.521Z,15.27
2022-10-26T16:52:24.932Z,15.22
2022-10-26T16:54:51.472Z,15.19
2022-10-26T16:57:17.871Z,15.14
2022-10-26T16:59:44.378Z,15.10
2022-10-26T17:02:14.289Z,15.02
2022-10-26T17:04:40.815Z,14.98
2022-10-26T17:07:07.242Z,14.95
2022-10-26T17:09:33.654Z,14.94
2022-10-26T17:12:02.042Z,14.91
2022-10-26T17:14:28.839Z,14.88
2022-10-26T17:16:55.428Z,14.87
2022-10-26T17:19:21.953Z,14.81
2022-10-26T17:21:48.379Z,14.79
2022-10-26T17:24:14.820Z,14.76
2022-10-26T17:26:41.654Z,14.75
2022-10-26T17:31:37.377Z,14.70
2022-10-26T17:34:03.896Z,14.67
2022-10-26T17:36:31.587Z,14.68
2022-10-26T17:38:58.244Z,14.64
2022-10-26T17:41:25.283Z,14.65
2022-10-26T17:43:51.728Z,14.61
2022-10-26T17:46:26.027Z,14.63
2022-10-26T17:49:00.484Z,14.67
2022-10-26T17:51:28.619Z,14.66
2022-10-26T17:53:55.914Z,14.63
2022-10-26T17:56:25.740Z,14.61
2022-10-26T17:58:57.183Z,14.60
2022-10-26T18:01:24.371Z,14.63
2022-10-26T18:03:51.586Z,14.63
2022-10-26T18:06:18.477Z,14.65
2022-10-26T18:08:45.599Z,14.66
2022-10-26T18:11:26.212Z,14.66
2022-10-26T18:13:54.303Z,14.61
2022-10-26T18:16:24.309Z,14.59
2022-10-26T18:19:00.027Z,14.58
2022-10-26T18:21:27.602Z,14.55
2022-10-26T18:23:54.572Z,14.52
2022-10-26T18:26:23.944Z,14.45
2022-10-26T18:28:50.357Z,14.35
2022-10-26T18:31:20.198Z,14.38
2022-10-26T18:33:47.257Z,14.40
2022-10-26T18:36:16.392Z,14.28
2022-10-26T18:38:43.843Z,14.30
2022-10-26T18:41:12.027Z,14.28
2022-10-26T18:43:46.924Z,14.23
2022-10-26T18:46:20.729Z,14.21
2022-10-26T18:48:48.194Z,14.23
2022-10-26T18:51:17.616Z,14.13
2022-10-26T18:53:45.363Z,14.10
2022-10-26T18:56:14.471Z,14.09
2022-10-26T18:58:47.192Z,14.06
2022-10-26T19:01:19.980Z,14.06
2022-10-26T19:03:47.271Z,14.03
2022-10-26T19:06:19.956Z,13.99
2022-10-26T19:08:46.949Z,14.01
2022-10-26T19:11:18.551Z,13.92
2022-10-26T19:13:45.354Z,13.93
2022-10-26T19:16:40.589Z,13.80
2022-10-26T19:19:08.738Z,13.72
2022-10-26T19:21:35.498Z,13.76
2022-10-26T19:24:03.031Z,13.81
2022-10-26T19:26:36.823Z,13.76
2022-10-26T19:29:06.998Z,13.70
2022-10-26T19:31:35.635Z,13.76
2022-10-26T19:34:03.100Z,13.59
2022-10-26T19:36:30.394Z,13.67
2022-10-26T19:38:57.408Z,13.60
2022-10-26T19:41:26.699Z,13.60
2022-10-26T19:46:30.966Z,13.53
2022-10-26T19:49:00.252Z,13.43
2022-10-26T19:51:28.616Z,13.41
2022-10-26T19:53:57.903Z,13.43
2022-10-26T19:56:27.287Z,13.40
2022-10-26T19:58:54.188Z,13.39
2022-10-26T20:01:20.655Z,13.36
2022-10-26T20:03:47.315Z,13.27
2022-10-26T20:06:14.023Z,13.32
2022-10-26T20:08:42.283Z,13.28
2022-10-26T20:11:13.108Z,13.20
2022-10-26T20:13:42.996Z,13.16
2022-10-26T20:16:10.552Z,13.16
2022-10-26T20:18:37.157Z,13.10
2022-10-26T20:21:08.107Z,13.13
2022-10-26T20:23:34.694Z,13.07
2022-10-26T20:26:03.172Z,13.11
2022-10-26T20:28:30.310Z,13.03
2022-10-26T20:30:56.836Z,13.07
2022-10-26T20:33:23.258Z,13.11
2022-10-26T20:35:49.755Z,12.95
2022-10-26T20:38:18.962Z,12.93
2022-10-26T20:40:54.247Z,12.82
2022-10-26T20:43:20.988Z,12.81
2022-10-26T20:45:47.779Z,12.76
2022-10-26T20:48:15.015Z,12.73
2022-10-26T20:50:45.179Z,12.72
2022-10-26T20:53:32.928Z,12.75
2022-10-26T20:56:05.734Z,12.72
2022-10-26T20:58:41.328Z,12.75
2022-10-26T21:01:44.938Z,12.70
2022-10-26T21:04:11.488Z,12.72
2022-10-26T21:06:40.738Z,12.74
2022-10-26T21:09:08.035Z,12.70
2022-10-26T21:11:34.828Z,12.79
2022-10-26T21:14:03.466Z,12.72
2022-10-26T21:16:30.072Z,12.57
2022-10-26T21:18:56.540Z,12.54
2022-10-26T21:21:22.953Z,12.58
2022-10-26T21:23:49.454Z,12.55
2022-10-26T21:26:15.903Z,12.55
2022-10-26T21:28:46.972Z,12.60
2022-10-26T21:31:15.512Z,12.63
2022-10-26T21:33:42.182Z,12.62
2022-10-26T21:36:13.593Z,12.63
2022-10-26T21:38:42.179Z,12.58
2022-10-26T21:41:10.095Z,12.57
2022-10-26T21:43:38.042Z,12.60
2022-10-26T21:46:04.925Z,12.61
2022-10-26T21:48:33.119Z,12.56
2022-10-26T21:51:04.461Z,12.51
2022-10-26T21:53:31.283Z,12.51
2022-10-26T21:56:01.887Z,12.54
2022-10-26T21:58:28.910Z,12.49
2022-10-26T22:00:55.504Z,12.43
2022-10-26T22:03:21.909Z,12.40
2022-10-26T22:05:51.984Z,12.34
2022-10-26T22:08:18.473Z,12.38
2022-10-26T22:10:44.866Z,12.40
2022-10-26T22:13:11.299Z,12.39
2022-10-26T22:15:37.715Z,12.40
2022-10-26T22:18:04.168Z,12.44
2022-10-26T22:20:30.583Z,12.39
2022-10-26T22:22:57.021Z,12.33
2022-10-26T22:25:23.457Z,12.27
2022-10-26T22:27:50.200Z,12.34
2022-10-26T22:30:16.912Z,12.37
2022-10-26T22:32:43.412Z,12.36
2022-10-26T22:35:24.698Z,12.30
2022-10-26T22:37:55.735Z,12.31
2022-10-26T22:40:22.141Z,12.24
2022-10-26T22:42:51.637Z,12.30
2022-10-26T22:45:18.482Z,12.30
2022-10-26T22:47:44.925Z,12.28
2022-10-26T22:50:11.340Z,12.31
2022-10-26T22:52:37.780Z,12.35
2022-10-26T22:55:04.380Z,12.33
2022-10-26T22:57:30.775Z,12.34
2022-10-26T22:59:57.160Z,12.31
2022-10-26T23:02:23.656Z,12.34
2022-10-26T23:04:50.090Z,12.35
2022-10-26T23:07:16.570Z,12.32
2022-10-26T23:09:43.054Z,12.34
2022-10-26T23:12:09.553Z,12.35
2022-10-26T23:14:35.919Z,12.35
2022-10-26T23:17:03.750Z,12.33
2022-10-26T23:19:30.201Z,12.35
2022-10-26T23:21:56.596Z,12.37
2022-10-26T23:24:23.060Z,12.37
2022-10-26T23:26:49.479Z,12.41
2022-10-26T23:29:16.376Z,12.40
2022-10-26T23:31:42.768Z,12.40
2022-10-26T23:34:09.212Z,12.42
2022-10-26T23:36:35.615Z,12.43
2022-10-26T23:39:02.030Z,12.44
2022-10-26T23:41:28.892Z,12.48
2022-10-26T23:43:55.299Z,12.46
2022-10-26T23:46:21.726Z,12.47
2022-10-26T23:48:48.133Z,12.48
2022-10-26T23:51:14.570Z,12.44
2022-10-26T23:53:41.037Z,12.39
2022-10-26T23:56:07.796Z,12.35
2022-10-26T23:58:34.209Z,12.37
